createdAt,value
2022-11-23T00:00:49.242Z,97763.31
2022-11-23T00:03:17.278Z,97763.94
2022-11-23T00:05:45.145Z,97767.41
2022-11-23T00:08:12.894Z,97776.06
2022-11-23T00:10:40.732Z,97772.50
2022-11-23T00:13:09.919Z,97776.22
2022-11-23T00:15:37.681Z,97775.13
2022-11-23T00:18:05.519Z,97770.84
2022-11-23T00:20:33.349Z,97777.91
2022-11-23T00:23:01.126Z,97772.22
2022-11-23T00:25:29.567Z,97769.50
2022-11-23T00:27:57.394Z,97772.88
2022-11-23T00:30:26.664Z,97783.94
2022-11-23T00:32:56.425Z,97781.81
2022-11-23T00:35:24.749Z,97778.75
2022-11-23T00:37:52.558Z,97780.25
2022-11-23T00:40:20.345Z,97780.97
2022-11-23T00:42:48.102Z,97789.34
2022-11-23T00:45:16.168Z,97787.75
2022-11-23T00:47:45.325Z,97789.72
2022-11-23T00:50:13.172Z,97787.31
2022-11-23T00:52:40.975Z,97788.25
2022-11-23T00:55:09.428Z,97787.38
2022-11-23T00:57:37.466Z,97788.69
2022-11-23T01:00:06.386Z,97784.03
2022-11-23T01:02:35.881Z,97787.78
2022-11-23T01:05:05.390Z,97785.03
2022-11-23T01:07:33.554Z,97792.25
2022-11-23T01:10:01.642Z,97796.47
2022-11-23T01:12:30.058Z,97789.63
2022-11-23T01:14:57.885Z,97791.94
2022-11-23T01:17:25.619Z,97788.25
2022-11-23T01:19:53.426Z,97791.28
2022-11-23T01:22:22.951Z,97799.59
2022-11-23T01:24:51.438Z,97800.22
2022-11-23T01:27:19.225Z,97795.09
2022-11-23T01:29:46.975Z,97795.84
2022-11-23T01:32:14.773Z,97798.38
2022-11-23T01:34:42.626Z,97804.19
2022-11-23T01:37:10.483Z,97803.34
2022-11-23T01:39:39.995Z,97808.50
2022-11-23T01:42:08.510Z,97814.00
2022-11-23T01:44:38.801Z,97807.94
2022-11-23T01:47:08.400Z,97814.63
2022-11-23T01:49:40.051Z,97817.53
2022-11-23T01:52:12.603Z,97810.31
2022-11-23T01:54:47.664Z,97812.41
2022-11-23T01:57:20.382Z,97817.00
2022-11-23T01:59:49.956Z,97820.34
2022-11-23T02:02:18.940Z,97827.06
2022-11-23T02:04:51.553Z,97826.88
2022-11-23T02:07:20.529Z,97819.94
2022-11-23T02:09:50.309Z,97822.28
2022-11-23T02:12:18.151Z,97815.50
2022-11-23T02:14:47.030Z,97816.34
2022-11-23T02:17:15.092Z,97817.34
2022-11-23T02:19:52.838Z,97818.00
2022-11-23T02:22:27.827Z,97820.44
2022-11-23T02:24:57.457Z,97816.94
2022-11-23T02:27:28.680Z,97819.56
2022-11-23T02:30:01.243Z,97827.91
2022-11-23T02:32:30.541Z,97828.03
2022-11-23T02:39:14.630Z,97824.28
2022-11-23T02:41:44.897Z,97830.56
2022-11-23T02:44:30.110Z,97834.19
2022-11-23T02:46:59.227Z,97837.44
2022-11-23T02:49:27.290Z,97837.94
2022-11-23T02:51:55.157Z,97829.84
2022-11-23T02:54:26.179Z,97834.47
2022-11-23T02:56:54.059Z,97837.72
2022-11-23T02:59:23.277Z,97841.94
2022-11-23T03:01:52.552Z,97842.84
2022-11-23T03:04:27.155Z,97848.41
2022-11-23T03:06:55.700Z,97847.19
2022-11-23T03:09:23.883Z,97836.41
2022-11-23T03:11:51.848Z,97847.19
2022-11-23T03:14:19.694Z,97840.84
2022-11-23T03:16:53.445Z,97844.84
2022-11-23T03:19:21.650Z,97843.38
2022-11-23T03:21:51.539Z,97840.47
2022-11-23T03:24:19.393Z,97845.44
2022-11-23T03:26:48.776Z,97834.84
2022-11-23T03:29:20.742Z,97837.53
2022-11-23T03:31:48.960Z,97838.41
2022-11-23T03:34:20.242Z,97846.78
2022-11-23T03:36:49.810Z,97838.38
2022-11-23T03:39:17.770Z,97844.56
2022-11-23T03:41:51.786Z,97843.94
2022-11-23T03:44:22.376Z,97837.81
2022-11-23T03:46:51.440Z,97841.03
2022-11-23T03:49:20.629Z,97837.16
2022-11-23T03:51:48.430Z,97829.34
2022-11-23T03:54:16.204Z,97831.88
2022-11-23T03:56:44.093Z,97823.47
2022-11-23T03:59:12.325Z,97834.53
2022-11-23T04:01:40.183Z,97834.72
2022-11-23T04:04:12.033Z,97830.50
2022-11-23T04:07:04.373Z,97823.03
2022-11-23T04:09:35.494Z,97823.41
2022-11-23T04:12:06.676Z,97825.44
2022-11-23T04:14:37.339Z,97827.06
2022-11-23T04:17:05.672Z,97825.41
2022-11-23T04:19:34.404Z,97823.66
2022-11-23T04:22:04.280Z,97821.00
2022-11-23T04:24:38.428Z,97821.31
2022-11-23T04:27:08.187Z,97823.66
2022-11-23T04:29:35.950Z,97820.72
2022-11-23T04:32:03.819Z,97832.59
2022-11-23T04:34:31.667Z,97829.25
2022-11-23T04:37:01.866Z,97827.03
2022-11-23T04:39:37.369Z,97827.91
2022-11-23T04:42:16.993Z,97833.75
2022-11-23T04:44:50.600Z,97828.94
2022-11-23T04:47:19.078Z,97840.31
2022-11-23T04:49:48.745Z,97829.97
2022-11-23T04:52:17.221Z,97823.13
2022-11-23T04:54:49.202Z,97811.03
2022-11-23T04:57:17.115Z,97825.22
2022-11-23T04:59:46.618Z,97813.38
2022-11-23T05:02:15.511Z,97814.94
2022-11-23T05:04:52.516Z,97812.94
2022-11-23T05:07:21.360Z,97822.59
2022-11-23T05:09:56.922Z,97828.38
2022-11-23T05:12:24.692Z,97815.31
2022-11-23T05:14:52.643Z,97824.38
2022-11-23T05:17:25.398Z,97818.47
2022-11-23T05:19:55.776Z,97812.09
2022-11-23T05:22:24.150Z,97810.41
2022-11-23T05:24:52.023Z,97815.03
2022-11-23T05:27:24.130Z,97813.00
2022-11-23T05:29:52.126Z,97817.72
2022-11-23T05:32:19.971Z,97812.56
2022-11-23T05:34:48.727Z,97813.44
2022-11-23T05:37:18.306Z,97818.66
2022-11-23T05:40:01.699Z,97815.28
2022-11-23T05:42:32.920Z,97816.97
2022-11-23T05:45:11.660Z,97810.66
2022-11-23T05:47:43.653Z,97816.88
2022-11-23T05:50:20.881Z,97820.53
2022-11-23T05:52:48.709Z,97814.38
2022-11-23T05:55:17.111Z,97808.63
2022-11-23T05:57:47.336Z,97818.91
2022-11-23T06:00:16.423Z,97811.75
2022-11-23T06:02:59.486Z,97811.75
2022-11-23T06:05:27.311Z,97814.81
2022-11-23T06:07:55.197Z,97813.16
2022-11-23T06:10:27.789Z,97818.56
2022-11-23T06:13:03.342Z,97820.03
2022-11-23T06:15:31.861Z,97823.81
2022-11-23T06:18:03.209Z,97826.50
2022-11-23T06:20:44.968Z,97820.53
2022-11-23T06:23:13.230Z,97820.53
2022-11-23T06:25:41.814Z,97824.38
2022-11-23T06:28:29.104Z,97817.56
2022-11-23T06:31:03.472Z,97815.50
2022-11-23T06:33:32.483Z,97819.34
2022-11-23T06:36:02.446Z,97813.22
2022-11-23T06:38:45.173Z,97819.06
2022-11-23T06:41:17.719Z,97817.72
2022-11-23T06:43:49.247Z,97826.88
2022-11-23T06:46:26.265Z,97825.44
2022-11-23T06:48:54.085Z,97821.53
2022-11-23T06:51:21.951Z,97829.63
2022-11-23T06:53:51.681Z,97830.25
2022-11-23T06:56:19.701Z,97829.41
2022-11-23T06:58:49.125Z,97838.38
2022-11-23T07:01:21.929Z,97849.56
2022-11-23T07:03:56.403Z,97847.44
2022-11-23T07:06:31.211Z,97846.91
2022-11-23T07:09:03.708Z,97855.25
2022-11-23T07:11:49.962Z,97856.78
2022-11-23T07:14:20.122Z,97873.16
2022-11-23T07:16:51.034Z,97869.03
2022-11-23T07:19:20.244Z,97857.34
2022-11-23T07:21:49.378Z,97865.19
2022-11-23T07:24:18.123Z,97865.75
2022-11-23T07:26:45.944Z,97871.88
2022-11-23T07:29:13.920Z,97861.72
2022-11-23T07:31:43.225Z,97867.25
2022-11-23T07:34:11.286Z,97867.53
2022-11-23T07:36:39.287Z,97865.13
2022-11-23T07:39:07.098Z,97867.03
2022-11-23T07:41:34.966Z,97881.16
2022-11-23T07:44:25.700Z,97864.97
2022-11-23T07:46:55.667Z,97866.53
2022-11-23T07:49:23.430Z,97880.97
2022-11-23T07:51:51.267Z,97875.13
2022-11-23T07:54:23.464Z,97868.81
2022-11-23T07:56:51.662Z,97876.84
2022-11-23T07:59:19.411Z,97873.91
2022-11-23T08:01:51.232Z,97872.03
2022-11-23T08:04:22.902Z,97874.88
2022-11-23T08:06:50.775Z,97869.16
2022-11-23T08:09:19.421Z,97860.31
2022-11-23T08:11:47.260Z,97871.56
2022-11-23T08:14:15.217Z,97868.06
2022-11-23T08:16:42.963Z,97864.50
2022-11-23T08:19:11.003Z,97860.53
2022-11-23T08:21:40.333Z,97858.81
2022-11-23T08:24:08.682Z,97862.91
2022-11-23T08:26:36.859Z,97868.84
2022-11-23T08:29:05.555Z,97868.97
2022-11-23T08:31:33.362Z,97871.41
2022-11-23T08:34:03.613Z,97871.91
2022-11-23T08:36:31.892Z,97874.50
2022-11-23T08:39:01.099Z,97875.13
2022-11-23T08:41:29.039Z,97874.06
2022-11-23T08:43:56.833Z,97878.75
2022-11-23T08:46:25.066Z,97878.69
2022-11-23T08:48:53.122Z,97882.06
2022-11-23T08:51:22.889Z,97881.09
2022-11-23T08:53:50.762Z,97879.81
2022-11-23T08:56:19.889Z,97881.16
2022-11-23T08:58:48.027Z,97884.72
2022-11-23T09:01:17.882Z,97886.63
2022-11-23T09:03:46.509Z,97885.59
2022-11-23T09:06:14.368Z,97886.13
2022-11-23T09:08:42.179Z,97880.50
2022-11-23T09:11:14.238Z,97893.09
2022-11-23T09:13:43.336Z,97888.03
2022-11-23T09:16:11.163Z,97879.16
2022-11-23T09:18:39.050Z,97891.03
2022-11-23T09:21:07.444Z,97885.31
2022-11-23T09:23:35.309Z,97896.81
2022-11-23T09:26:04.828Z,97896.13
2022-11-23T09:28:33.858Z,97892.97
2022-11-23T09:31:05.555Z,97892.69
2022-11-23T09:33:33.333Z,97890.09
2022-11-23T09:36:01.874Z,97895.03
2022-11-23T09:38:54.625Z,97891.94
2022-11-23T09:41:36.115Z,97886.16
2022-11-23T09:44:09.210Z,97890.81
2022-11-23T09:46:50.058Z,97887.84
2022-11-23T09:49:19.804Z,97888.00
2022-11-23T09:51:48.592Z,97899.53
2022-11-23T09:54:25.782Z,97904.44
2022-11-23T09:57:01.393Z,97894.00
2022-11-23T09:59:41.837Z,97896.78
2022-11-23T10:02:20.938Z,97895.03
2022-11-23T10:04:49.122Z,97896.19
2022-11-23T10:07:31.801Z,97894.16
2022-11-23T10:10:11.327Z,97896.78
2022-11-23T10:12:48.922Z,97887.16
2022-11-23T10:15:25.304Z,97890.69
2022-11-23T10:18:19.673Z,97888.13
2022-11-23T10:21:00.628Z,97884.28
2022-11-23T10:23:51.723Z,97892.16
2022-11-23T10:26:22.123Z,97884.75
2022-11-23T10:28:51.808Z,97878.72
2022-11-23T10:31:22.107Z,97876.63
2022-11-23T10:33:56.979Z,97881.81
2022-11-23T10:36:24.811Z,97878.75
2022-11-23T10:38:58.672Z,97879.75
2022-11-23T10:41:27.084Z,97882.56
2022-11-23T10:44:01.192Z,97880.66
2022-11-23T10:46:32.137Z,97880.34
2022-11-23T10:52:07.465Z,97872.09
2022-11-23T10:54:37.679Z,97866.22
2022-11-23T10:57:22.850Z,97863.97
2022-11-23T11:00:01.258Z,97858.78
2022-11-23T11:02:30.791Z,97855.69
2022-11-23T11:05:16.443Z,97858.38
2022-11-23T11:07:45.781Z,97858.00
2022-11-23T11:10:35.357Z,97852.63
2022-11-23T11:13:03.858Z,97854.31
2022-11-23T11:15:31.678Z,97857.63
2022-11-23T11:18:00.809Z,97856.50
2022-11-23T11:20:35.163Z,97853.69
2022-11-23T11:23:17.172Z,97850.59
2022-11-23T11:25:45.610Z,97840.22
2022-11-23T11:28:23.683Z,97847.47
2022-11-23T11:31:04.173Z,97846.56
2022-11-23T11:33:42.128Z,97839.44
2022-11-23T11:36:13.165Z,97836.63
2022-11-23T11:39:07.764Z,97834.44
2022-11-23T11:41:35.131Z,97834.47
2022-11-23T11:44:09.626Z,97827.13
2022-11-23T11:46:42.879Z,97828.25
2022-11-23T11:49:16.608Z,97827.28
2022-11-23T11:51:49.224Z,97826.97
2022-11-23T11:54:25.747Z,97833.84
2022-11-23T11:56:56.883Z,97833.50
2022-11-23T11:59:30.516Z,97822.19
2022-11-23T12:02:09.042Z,97838.97
2022-11-23T12:04:42.544Z,97824.97
2022-11-23T12:07:15.671Z,97823.19
2022-11-23T12:09:49.499Z,97816.78
2022-11-23T12:12:19.440Z,97816.78
2022-11-23T12:14:47.762Z,97820.03
2022-11-23T12:17:36.529Z,97819.97
2022-11-23T12:20:17.403Z,97814.09
2022-11-23T12:22:59.613Z,97815.25
2022-11-23T12:25:36.711Z,97816.91
2022-11-23T12:28:19.279Z,97821.59
2022-11-23T12:30:54.008Z,97808.97
2022-11-23T12:33:44.703Z,97815.47
2022-11-23T12:36:27.672Z,97809.88
2022-11-23T12:38:57.079Z,97818.34
2022-11-23T12:41:36.419Z,97804.94
2022-11-23T12:44:35.268Z,97809.63
2022-11-23T12:47:16.026Z,97792.19
2022-11-23T12:49:52.014Z,97784.72
2022-11-23T12:52:34.781Z,97784.16
2022-11-23T12:55:19.791Z,97786.03
2022-11-23T12:57:56.300Z,97780.75
2022-11-23T13:00:25.832Z,97782.53
2022-11-23T13:03:32.436Z,97775.19
2022-11-23T13:06:44.041Z,97772.03
2022-11-23T13:09:40.724Z,97760.91
2022-11-23T13:12:13.870Z,97759.66
2022-11-23T13:14:55.131Z,97761.19
2022-11-23T13:17:33.509Z,97762.94
2022-11-23T13:20:16.099Z,97764.69
2022-11-23T13:22:46.057Z,97768.31
2022-11-23T13:25:23.934Z,97756.22
2022-11-23T13:28:00.718Z,97761.63
2022-11-23T13:30:59.187Z,97763.81
2022-11-23T13:33:31.797Z,97756.53
2022-11-23T13:36:09.479Z,97742.88
2022-11-23T13:38:42.865Z,97755.00
2022-11-23T13:41:53.500Z,97752.50
2022-11-23T13:44:22.793Z,97754.06
2022-11-23T13:47:05.018Z,97744.16
2022-11-23T13:49:41.894Z,97747.09
2022-11-23T13:52:31.164Z,97736.19
2022-11-23T13:55:09.818Z,97748.31
2022-11-23T13:57:39.452Z,97738.22
2022-11-23T14:00:45.143Z,97749.09
2022-11-23T14:03:55.779Z,97736.06
2022-11-23T14:06:37.718Z,97742.56
2022-11-23T14:09:12.383Z,97746.94
2022-11-23T14:11:52.376Z,97741.47
2022-11-23T14:14:23.703Z,97739.13
2022-11-23T14:17:12.499Z,97737.09
2022-11-23T14:20:00.987Z,97734.91
2022-11-23T14:22:41.041Z,97733.50
2022-11-23T14:25:28.508Z,97736.25
2022-11-23T14:28:06.339Z,97740.91
2022-11-23T14:30:45.506Z,97737.19
2022-11-23T14:33:25.456Z,97729.09
2022-11-23T14:36:04.006Z,97729.09
2022-11-23T14:38:58.207Z,97723.94
2022-11-23T14:41:29.442Z,97723.38
2022-11-23T14:44:01.182Z,97725.66
2022-11-23T14:46:29.195Z,97718.13
2022-11-23T14:49:05.692Z,97720.53
2022-11-23T14:51:36.686Z,97718.41
2022-11-23T14:54:10.502Z,97715.75
2022-11-23T14:56:43.823Z,97714.44
2022-11-23T14:59:22.327Z,97714.78
2022-11-23T15:01:53.577Z,97714.13
2022-11-23T15:04:27.113Z,97701.44
2022-11-23T15:07:01.920Z,97706.50
2022-11-23T15:09:51.272Z,97705.13
2022-11-23T15:12:23.531Z,97709.75
2022-11-23T15:14:52.273Z,97711.81
2022-11-23T15:17:22.488Z,97708.97
2022-11-23T15:19:57.903Z,97711.53
2022-11-23T15:22:28.737Z,97710.19
2022-11-23T15:25:08.257Z,97700.31
2022-11-23T15:27:41.217Z,97701.88
2022-11-23T15:30:17.391Z,97695.78
2022-11-23T15:32:45.698Z,97697.13
2022-11-23T15:35:16.720Z,97695.13
2022-11-23T15:37:48.364Z,97702.56
2022-11-23T15:40:18.814Z,97699.91
2022-11-23T15:42:47.808Z,97697.34
2022-11-23T15:45:35.664Z,97699.88
2022-11-23T15:48:05.630Z,97702.44
2022-11-23T15:50:34.541Z,97698.38
2022-11-23T15:53:04.077Z,97700.50
2022-11-23T15:55:32.152Z,97702.38
2022-11-23T15:58:10.108Z,97706.88
2022-11-23T16:00:38.236Z,97705.22
2022-11-23T16:03:33.233Z,97694.00
2022-11-23T16:06:17.333Z,97698.25
2022-11-23T16:08:47.017Z,97694.31
2022-11-23T16:11:30.952Z,97688.56
2022-11-23T16:14:16.563Z,97690.03
2022-11-23T16:16:46.596Z,97701.13
2022-11-23T16:19:24.530Z,97706.59
2022-11-23T16:22:02.009Z,97707.72
2022-11-23T16:24:34.057Z,97706.94
2022-11-23T16:27:03.360Z,97708.84
2022-11-23T16:29:36.088Z,97719.41
2022-11-23T16:32:07.031Z,97715.19
2022-11-23T16:34:35.438Z,97724.47
2022-11-23T16:37:04.602Z,97728.97
2022-11-23T16:39:33.778Z,97737.50
2022-11-23T16:42:01.787Z,97730.59
2022-11-23T16:44:31.235Z,97737.03
2022-11-23T16:47:21.579Z,97743.78
2022-11-23T16:49:53.134Z,97752.59
2022-11-23T16:52:22.648Z,97746.69
2022-11-23T16:54:53.469Z,97747.59
2022-11-23T16:57:28.715Z,97746.94
2022-11-23T16:59:57.029Z,97748.25
2022-11-23T17:02:25.366Z,97749.47
2022-11-23T17:04:53.253Z,97752.78
2022-11-23T17:07:21.191Z,97763.66
2022-11-23T17:09:49.069Z,97762.78
2022-11-23T17:12:20.743Z,97766.78
2022-11-23T17:14:50.476Z,97766.34
2022-11-23T17:17:22.020Z,97773.22
2022-11-23T17:19:51.174Z,97768.75
2022-11-23T17:22:19.969Z,97772.72
2022-11-23T17:24:48.532Z,97780.66
2022-11-23T17:27:21.327Z,97772.00
2022-11-23T17:29:56.331Z,97785.75
2022-11-23T17:32:55.231Z,97784.66
2022-11-23T17:35:22.566Z,97780.72
2022-11-23T17:37:50.346Z,97793.56
2022-11-23T17:40:19.879Z,97797.47
2022-11-23T17:42:49.534Z,97799.09
2022-11-23T17:45:18.024Z,97801.53
2022-11-23T17:47:46.564Z,97804.53
2022-11-23T17:50:19.378Z,97799.63
2022-11-23T17:52:47.714Z,97792.31
2022-11-23T17:55:16.880Z,97800.25
2022-11-23T17:57:44.698Z,97798.53
2022-11-23T18:00:18.628Z,97807.88
2022-11-23T18:02:46.553Z,97816.41
2022-11-23T18:05:20.902Z,97807.59
2022-11-23T18:07:49.844Z,97814.81
2022-11-23T18:10:18.124Z,97816.31
2022-11-23T18:12:46.744Z,97819.72
2022-11-23T18:15:16.311Z,97820.75
2022-11-23T18:17:44.181Z,97815.91
2022-11-23T18:20:13.419Z,97824.41
2022-11-23T18:22:41.248Z,97834.97
2022-11-23T18:25:10.079Z,97834.03
2022-11-23T18:27:41.903Z,97832.91
2022-11-23T18:30:10.883Z,97834.91
2022-11-23T18:32:40.056Z,97830.75
2022-11-23T18:35:09.059Z,97843.03
2022-11-23T18:37:36.888Z,97843.38
2022-11-23T18:40:05.204Z,97848.00
2022-11-23T18:42:33.082Z,97855.00
2022-11-23T18:45:01.256Z,97857.78
2022-11-23T18:47:29.136Z,97860.22
2022-11-23T18:50:02.078Z,97869.81
2022-11-23T18:52:33.902Z,97877.09
2022-11-23T18:55:01.649Z,97879.00
2022-11-23T18:57:30.152Z,97877.47
2022-11-23T18:59:58.766Z,97882.63
2022-11-23T19:02:27.840Z,97885.69
2022-11-23T19:04:55.859Z,97895.31
2022-11-23T19:07:27.091Z,97911.59
2022-11-23T19:09:55.566Z,97910.66
2022-11-23T19:12:23.605Z,97907.88
2022-11-23T19:14:51.400Z,97910.53
2022-11-23T19:17:19.347Z,97917.06
2022-11-23T19:19:47.148Z,97920.13
2022-11-23T19:22:15.100Z,97923.50
2022-11-23T19:24:44.328Z,97921.94
2022-11-23T19:27:12.180Z,97921.50
2022-11-23T19:29:40.044Z,97928.13
2022-11-23T19:32:07.964Z,97938.72
2022-11-23T19:34:36.010Z,97939.84
2022-11-23T19:37:03.818Z,97940.44
2022-11-23T19:39:31.872Z,97942.69
2022-11-23T19:42:01.366Z,97952.75
2022-11-23T19:44:29.360Z,97949.47
2022-11-23T19:46:57.325Z,97950.38
2022-11-23T19:49:25.156Z,97950.53
2022-11-23T19:51:53.735Z,97959.28
2022-11-23T19:54:21.657Z,97971.53
2022-11-23T19:56:50.707Z,97968.75
2022-11-23T19:59:19.846Z,97968.16
2022-11-23T20:01:48.036Z,97978.03
2022-11-23T20:04:15.916Z,97980.03
2022-11-23T20:06:43.737Z,97983.88
2022-11-23T20:09:13.436Z,97988.84
2022-11-23T20:11:44.754Z,97981.00
2022-11-23T20:14:15.346Z,97990.06
2022-11-23T20:16:44.491Z,97988.69
2022-11-23T20:19:12.555Z,97995.88
2022-11-23T20:21:40.423Z,98000.63
2022-11-23T20:24:12.160Z,98005.66
2022-11-23T20:26:41.108Z,97994.63
2022-11-23T20:29:10.025Z,98003.53
2022-11-23T20:31:38.527Z,98009.06
2022-11-23T20:34:10.720Z,98016.13
2022-11-23T20:36:41.049Z,98014.13
2022-11-23T20:39:11.906Z,98011.81
2022-11-23T20:41:39.822Z,98016.41
2022-11-23T20:44:11.608Z,98015.56
2022-11-23T20:49:29.801Z,98023.03
2022-11-23T20:51:57.550Z,98025.03
2022-11-23T20:54:25.436Z,98034.47
2022-11-23T20:56:53.232Z,98031.91
2022-11-23T20:59:21.086Z,98028.16
2022-11-23T21:01:48.912Z,98035.91
2022-11-23T21:04:16.946Z,98038.53
2022-11-23T21:06:46.089Z,98043.00
2022-11-23T21:09:13.888Z,98046.34
2022-11-23T21:11:59.379Z,98046.63
2022-11-23T21:14:30.513Z,98049.84
2022-11-23T21:17:00.323Z,98055.81
2022-11-23T21:19:29.484Z,98054.88
2022-11-23T21:21:59.652Z,98058.88
2022-11-23T21:24:27.610Z,98060.00
2022-11-23T21:26:55.555Z,98057.81
2022-11-23T21:29:23.812Z,98065.69
2022-11-23T21:31:51.978Z,98069.25
2022-11-23T21:34:21.805Z,98074.13
2022-11-23T21:36:49.910Z,98079.22
2022-11-23T21:39:20.050Z,98081.84
2022-11-23T21:41:49.871Z,98085.81
2022-11-23T21:44:18.363Z,98081.59
2022-11-23T21:46:46.507Z,98085.28
2022-11-23T21:49:14.235Z,98094.16
2022-11-23T21:51:42.740Z,98086.19
2022-11-23T21:54:14.097Z,98091.16
2022-11-23T21:56:44.358Z,98096.69
2022-11-23T21:59:12.495Z,98098.38
2022-11-23T22:01:40.875Z,98103.50
2022-11-23T22:04:11.218Z,98106.06
2022-11-23T22:06:40.108Z,98118.78
2022-11-23T22:09:09.330Z,98112.88
2022-11-23T22:11:41.127Z,98115.22
2022-11-23T22:14:12.743Z,98119.75
2022-11-23T22:16:42.745Z,98120.03
2022-11-23T22:19:11.722Z,98120.53
2022-11-23T22:21:41.165Z,98121.66
2022-11-23T22:24:12.973Z,98133.03
2022-11-23T22:26:41.039Z,98128.63
2022-11-23T22:29:12.084Z,98136.69
2022-11-23T22:31:40.521Z,98135.81
2022-11-23T22:34:11.673Z,98146.91
2022-11-23T22:36:39.590Z,98148.53
2022-11-23T22:39:08.434Z,98151.09
2022-11-23T22:41:37.912Z,98154.38
2022-11-23T22:44:07.844Z,98166.41
2022-11-23T22:46:37.902Z,98165.25
2022-11-23T22:49:06.240Z,98171.66
2022-11-23T22:51:34.129Z,98177.41
2022-11-23T22:54:02.424Z,98178.84
2022-11-23T22:56:31.565Z,98182.31
2022-11-23T22:59:00.180Z,98186.44
2022-11-23T23:01:29.837Z,98192.66
2022-11-23T23:04:01.272Z,98184.97
2022-11-23T23:06:31.259Z,98195.91
2022-11-23T23:09:01.233Z,98198.47
2022-11-23T23:11:30.430Z,98198.97
2022-11-23T23:13:58.727Z,98208.00
2022-11-23T23:16:27.666Z,98203.09
2022-11-23T23:18:56.577Z,98202.38
2022-11-23T23:21:27.263Z,98208.41
2022-11-23T23:23:57.054Z,98217.66
2022-11-23T23:26:27.116Z,98221.78
2022-11-23T23:28:56.249Z,98219.81
2022-11-23T23:31:25.070Z,98221.25
2022-11-23T23:33:53.837Z,98232.41
2022-11-23T23:36:23.053Z,98233.28
2022-11-23T23:38:52.436Z,98244.94
2022-11-23T23:41:20.445Z,98241.09
2022-11-23T23:43:48.850Z,98257.16
2022-11-23T23:46:17.140Z,98260.16
2022-11-23T23:48:44.936Z,98259.94
2022-11-23T23:51:14.586Z,98258.94
2022-11-23T23:53:43.062Z,98268.66
2022-11-23T23:56:16.858Z,98270.56
2022-11-23T23:58:45.320Z,98277.69
